Lorena, Texas
Current Conditions -  °F | °C
As of 4:35 AM on Saturday 22 Nov 2014 (Local Time) from KPWG Reporting Station
Overcast Overcast  
Wind Chill: 63°   Ceiling: 700
Heat Index: 63°   Visibility: 10mi
Dew Point: 57°   Wind: 16mph
Humidity: 82%   Direction: 150°SSE
Pressure: 30.05"   Gusts: NA
Location:  31.39°N, 97.22°W
Report Text: KPWG 221035Z AUTO 15014KT 10SM OVC007 17/14 A3005 RMK AO1
Loading
Personal Weather Stations






























Interactive Weather Map New forecast layout! Learn more

10-Day Weather Forecast

Advertisements
Track Severe Weather on mobile